To NAV CANADA Home Page Login to a new session Search on AWWS site Disclaimer Vers la page française équivalente Tips FAQ What's new on the site To the Forecasts and Observations / NOTAM section To "File a Flight Plan" website Publications and other links Update of the User's profile FIC Telephone Numbers My Weather Data Folder Route Weather Data Regional Weather Data Local Weather Data To the Forecasts and Observations / NOTAM section
Request Generated 04/22/2019 at 13:05:40 UTC . Weather information available at that time is displayed.

METAR/TAF

TORONTO/LESTER B. PEARSON INTL/ON    

METAR CYYZ 221300Z VRB02KT 6SM BR OVC120 09/07 A3024 RMK AC8 SLP247=
METAR CYYZ 221200Z VRB02KT 15SM BKN095 BKN110 08/07 A3024 RMK AC5AC2 BR SLP245=
METAR CYYZ 221100Z 15002KT 15SM OVC100 08/06 A3023 RMK AC8 BR SLP241=

TAF CYYZ 221139Z 2212/2318 VRB03KT P6SM FEW015 BKN100
BECMG 2213/2215 11006KT
FM221500 11006KT P6SM SCT120
FM222000 15007KT P6SM FEW140
BECMG 2301/2303 14003KT
FM231400 12008KT P6SM BKN100 TEMPO 2315/2318 P6SM -SHRA OVC080
PROB30 2315/2318 2SM TSRA BR BKN050CB OVC080
RMK NXT FCST BY 221500Z=

KITCHENER/WATERLOO/ON    (show WxCam)

METAR CYKF 221300Z AUTO VRB02KT 6SM BR OVC150 08/07 A3024 RMK SLP246=
SPECI CYKF 221256Z AUTO 00000KT 6SM BR OVC140 08/07 A3024 RMK SLP246=
METAR CYKF 221200Z AUTO 00000KT 3SM BR OVC130 06/06 A3023 RMK SLP245=
SPECI CYKF 221146Z AUTO 36002KT 3SM BR OVC130 06/06 A3023 RMK SLP243=
SPECI CYKF 221129Z AUTO 00000KT 2 1/2SM BR OVC130 05/05 A3022 RMK SLP241=
METAR CYKF 221100Z AUTO 00000KT 4SM BR OVC110 05/05 A3022 RMK SLP239=

TAF AMD CYKF 220947Z 2209/2220 VRB03KT 11/2SM BR BKN100 TEMPO
2209/2212 6SM BR
BECMG 2212/2214 P6SM NSW
FM221400 13006KT P6SM SCT100
BECMG 2218/2220 20007KT
RMK FCST BASED ON AUTO OBS. AUTO OBS REP NON-REPRESENTATIVE PCPN.
NXT FCST BY 221400Z=

BORDEN/ON    

METAR CYBN 221300Z AUTO 12003KT 100V180 9SM CLR 09/09 A3024 RMK SLP245=
METAR CYBN 221200Z AUTO 12002KT 9SM FEW089 07/07 A3023 RMK SLP244=
METAR CYBN 221100Z AUTO 00000KT 9SM FEW091 04/04 A3022 RMK SLP237=

TAF CYBN 221132Z 2212/2224 VRB03KT P6SM BKN080 TEMPO 2212/2214 1SM BR
BKN006 BKN080
BECMG 2215/2217 14008KT
RMK FCST BASED ON AUTO OBS. NXT FCST BY 221800Z=

MUSKOKA/ON    (show WxCam)

METAR CYQA 221300Z AUTO 00000KT 9SM BKN085 OVC110 08/07 A3023 RMK SLP247=
SPECI CYQA 221207Z AUTO 00000KT 9SM BKN090 OVC110 06/06 A3023 RMK SLP244=
METAR CYQA 221200Z AUTO 00000KT 9SM -RA OVC090 06/06 A3023 RMK SLP244=
SPECI CYQA 221153Z AUTO 00000KT 9SM -RA OVC090 06/06 A3023 RMK SLP243=
METAR CYQA 221100Z AUTO 00000KT 9SM OVC100 05/05 A3021 RMK SLP238=

TAF CYQA 221139Z 2212/2224 VRB03KT P6SM OVC090
FM221800 15006KT P6SM SCT025 BKN100 TEMPO 2218/2221 BKN025
FM222100 15006KT P6SM FEW025
RMK FCST BASED ON AUTO OBS. NXT FCST BY 221400Z=

HAMILTON/ON    

METAR CYHM 221300Z 24004KT 10SM FEW030 SCT095 BKN140 06/06 A3024 RMK SC2AC2AC3 SLP249=
METAR CYHM 221200Z 18004KT 15SM FEW030 BKN110 BKN120 05/05 A3024 RMK SC2AC3AC2 SLP249=
METAR CYHM 221100Z 20003KT 8SM FEW035 BKN110 BKN130 05/05 A3023 RMK SC2AC4AC1 SLP243=

TAF CYHM 221139Z 2212/2312 VRB03KT P6SM BKN120
BECMG 2213/2215 08005KT
FM221700 05008KT P6SM SCT100 PROB30 2304/2312 21/2SM BR
RMK NXT FCST BY 221800Z=

WIARTON/ON    

METAR CYVV 221300Z 13006KT 15SM FEW070 FEW250 11/08 A3021 RMK AC1CC1 SLP237=
METAR CYVV 221200Z 00000KT 15SM BKN070 06/04 A3022 RMK AC7 SLP240=
METAR CYVV 221100Z 13006KT 15SM BKN070 07/06 A3020 RMK AC7 SLP234=

TAF CYVV 221038Z 2211/2223 VRB03KT P6SM BKN080 TEMPO 2211/2218 SCT080
FM221800 19008KT P6SM FEW030
RMK NXT FCST BY 221400Z=

SARNIA (CHRIS HADFIELD)/ON    (show WxCam)

METAR CYZR 221300Z AUTO 17008KT 9SM OVC150 10/07 A3022 RMK SLP236=
METAR CYZR 221200Z AUTO 17005KT 9SM OVC150 08/06 A3021 RMK SLP235=
METAR CYZR 221100Z AUTO 19006KT 9SM OVC140 08/05 A3019 RMK SLP226=

TAF CYZR 220738Z 2208/2220 VRB03KT P6SM SCT100
BECMG 2213/2215 18012KT
RMK FCST BASED ON AUTO OBS. NXT FCST BY 221400Z=

LONDON/ON    

METAR CYXU 221300Z 16003KT 12SM BKN130 08/06 A3024 RMK AC7 SLP247=
METAR CYXU 221200Z 00000KT 10SM BKN130 06/06 A3023 RMK AC7 SLP244=
METAR CYXU 221100Z 08004KT 8SM BKN130 05/05 A3021 RMK AC7 SLP237=

TAF CYXU 221139Z 2212/2312 VRB03KT P6SM BKN120
BECMG 2213/2215 16007KT
FM221500 16007KT P6SM SCT120
FM221900 17008KT P6SM FEW140
BECMG 2300/2302 13007KT
FM230900 14010KT P6SM BKN120
RMK NXT FCST BY 221800Z=

ST. CATHARINES/NIAGARA DISTRICT/ON    

METAR CYSN 221300Z 23005KT 12SM OVC032 08/06 A3025 RMK SC8 WND ESTD SLP246=
METAR CYSN 221200Z 23005KT 10SM OVC031 07/06 A3024 RMK SC8 WND ESTD SLP244=
METAR CYSN 221100Z 23005KT 10SM OVC032 07/06 A3023 RMK SC8 WND ESTD SLP241=

TAF CYSN 221238Z 2213/2301 23005KT P6SM OVC030 TEMPO 2213/2218 SCT030
BKN100
BECMG 2216/2218 36006KT
FM221800 36006KT P6SM SCT100
BECMG 2222/2224 VRB03KT
RMK NXT FCST BY 222000Z=
Your time UTC time
Weather data provided by Environment Canada and NAV CANADA